QTR616 OTHH-OPMT
Flight info
| Callsign | QTR616 |
|---|---|
| Flight time | 3h 25m |
| Altitude | 37000 |
| Route | DEMBO4 DATRI L564 KUTNA M440 TULBU G652 SODEB G216 KC Z306 RK J138 OLSUM OLSUM1B |
| Aircraft | A320/M-SDE3FGHIRWY/LB1 |
Departure
| Time | 2026-05-08 17:52 |
|---|---|
| Airport | Hamad International Airport (OTHH) |
Arrival
| Time | 2026-05-08 21:18 |
|---|---|
| Airport | Multan International Airport (OPMT) |
| Time | Latitude | Longitude | Altitude | Speed | Heading |
|---|---|---|---|---|---|
| 2026-05-08 17:26 | 25.26175 | 51.61656 | 30 ft | 0 kts | 338° |
| 2026-05-08 17:42 | 25.26160 | 51.61662 | 30 ft | 4 kts | 338° |
| 2026-05-08 17:42 | 25.26135 | 51.61673 | 30 ft | 4 kts | 343° |
| 2026-05-08 17:43 | 25.26109 | 51.61678 | 30 ft | 4 kts | 7° |
| 2026-05-08 17:43 | 25.26116 | 51.61685 | 30 ft | 4 kts | 46° |
| 2026-05-08 17:43 | 25.26121 | 51.61709 | 30 ft | 2 kts | 83° |
| 2026-05-08 17:43 | 25.26118 | 51.61737 | 30 ft | 4 kts | 97° |
| 2026-05-08 17:44 | 25.26120 | 51.61766 | 30 ft | 4 kts | 76° |
| 2026-05-08 17:44 | 25.26125 | 51.61778 | 30 ft | 0 kts | 68° |
| 2026-05-08 17:46 | 25.26126 | 51.61781 | 30 ft | 1 kts | 68° |
| 2026-05-08 17:47 | 25.26133 | 51.61800 | 30 ft | 4 kts | 68° |
| 2026-05-08 17:47 | 25.26146 | 51.61837 | 30 ft | 6 kts | 68° |
| 2026-05-08 17:47 | 25.26166 | 51.61890 | 30 ft | 9 kts | 68° |
| 2026-05-08 17:47 | 25.26183 | 51.61936 | 30 ft | 10 kts | 68° |
| 2026-05-08 17:48 | 25.26212 | 51.62045 | 30 ft | 12 kts | 97° |
| 2026-05-08 17:48 | 25.26144 | 51.62104 | 30 ft | 14 kts | 156° |
| 2026-05-08 17:48 | 25.26052 | 51.62145 | 30 ft | 15 kts | 158° |
| 2026-05-08 17:48 | 25.25947 | 51.62192 | 30 ft | 17 kts | 158° |
| 2026-05-08 17:49 | 25.25831 | 51.62243 | 30 ft | 19 kts | 158° |
| 2026-05-08 17:49 | 25.25719 | 51.62291 | 30 ft | 13 kts | 158° |
| 2026-05-08 17:49 | 25.25638 | 51.62327 | 29 ft | 11 kts | 158° |
| 2026-05-08 17:49 | 25.25582 | 51.62368 | 29 ft | 10 kts | 123° |
| 2026-05-08 17:50 | 25.25589 | 51.62437 | 28 ft | 9 kts | 68° |
| 2026-05-08 17:50 | 25.25604 | 51.62479 | 28 ft | 0 kts | 69° |
| 2026-05-08 17:50 | 25.25605 | 51.62484 | 28 ft | 3 kts | 69° |
| 2026-05-08 17:51 | 25.25620 | 51.62522 | 27 ft | 8 kts | 63° |
| 2026-05-08 17:51 | 25.25673 | 51.62576 | 26 ft | 12 kts | 27° |
| 2026-05-08 17:51 | 25.25764 | 51.62580 | 29 ft | 15 kts | 342° |
| 2026-05-08 17:51 | 25.25866 | 51.62537 | 27 ft | 19 kts | 338° |
| 2026-05-08 17:52 | 25.26198 | 51.62391 | 28 ft | 84 kts | 338° |
| 2026-05-08 17:52 | 25.26925 | 51.62070 | 25 ft | 136 kts | 338° |
| 2026-05-08 17:52 | 25.29023 | 51.61180 | 629 ft | 172 kts | 338° |
| 2026-05-08 17:53 | 25.30176 | 51.60711 | 1248 ft | 178 kts | 338° |
| 2026-05-08 17:53 | 25.31387 | 51.60217 | 1456 ft | 199 kts | 338° |
| 2026-05-08 17:53 | 25.32743 | 51.59659 | 1755 ft | 217 kts | 338° |
| 2026-05-08 17:53 | 25.34255 | 51.59179 | 2188 ft | 231 kts | 353° |
| 2026-05-08 17:54 | 25.35867 | 51.59359 | 2718 ft | 243 kts | 15° |
| 2026-05-08 17:54 | 25.37461 | 51.60052 | 3451 ft | 245 kts | 19° |
| 2026-05-08 17:54 | 25.39083 | 51.60749 | 3902 ft | 259 kts | 16° |
| 2026-05-08 17:54 | 25.40827 | 51.61366 | 3998 ft | 267 kts | 14° |
| 2026-05-08 17:55 | 25.42614 | 51.61926 | 4010 ft | 267 kts | 13° |
| 2026-05-08 17:55 | 25.44408 | 51.62462 | 4015 ft | 266 kts | 12° |
| 2026-05-08 17:55 | 25.46195 | 51.62993 | 4005 ft | 266 kts | 13° |
| 2026-05-08 17:55 | 25.47989 | 51.63505 | 4007 ft | 266 kts | 11° |
| 2026-05-08 17:56 | 25.49794 | 51.63953 | 4002 ft | 266 kts | 9° |
| 2026-05-08 17:56 | 25.51609 | 51.64370 | 4013 ft | 267 kts | 7° |
| 2026-05-08 17:56 | 25.53430 | 51.64325 | 4005 ft | 262 kts | 343° |
| 2026-05-08 17:56 | 25.55030 | 51.63410 | 4016 ft | 261 kts | 319° |
| 2026-05-08 17:57 | 25.56106 | 51.61790 | 4174 ft | 268 kts | 292° |
| 2026-05-08 17:57 | 25.56417 | 51.59758 | 4928 ft | 273 kts | 268° |
| 2026-05-08 17:57 | 25.56016 | 51.57682 | 5632 ft | 278 kts | 256° |
| 2026-05-08 17:57 | 25.55483 | 51.55608 | 6318 ft | 282 kts | 255° |
| 2026-05-08 17:58 | 25.54926 | 51.53518 | 6861 ft | 286 kts | 255° |
| 2026-05-08 17:58 | 25.54359 | 51.51405 | 6981 ft | 286 kts | 255° |
| 2026-05-08 17:58 | 25.53792 | 51.49293 | 7012 ft | 286 kts | 255° |
| 2026-05-08 17:58 | 25.53228 | 51.47176 | 7002 ft | 287 kts | 255° |
| 2026-05-08 17:59 | 25.52665 | 51.45060 | 7014 ft | 286 kts | 255° |
| 2026-05-08 17:59 | 25.52103 | 51.42950 | 7010 ft | 286 kts | 255° |
| 2026-05-08 17:59 | 25.51542 | 51.40839 | 7013 ft | 286 kts | 255° |
| 2026-05-08 17:59 | 25.50981 | 51.38725 | 7013 ft | 286 kts | 255° |
| 2026-05-08 18:00 | 25.50603 | 51.37298 | 7013 ft | 286 kts | 255° |
| 2026-05-08 18:00 | 25.49483 | 51.33064 | 7013 ft | 286 kts | 255° |
| 2026-05-08 18:00 | 25.48924 | 51.30951 | 7009 ft | 286 kts | 255° |
| 2026-05-08 18:01 | 25.48361 | 51.28869 | 7014 ft | 286 kts | 252° |
| 2026-05-08 18:01 | 25.47358 | 51.26966 | 7011 ft | 289 kts | 228° |
| 2026-05-08 18:01 | 25.45697 | 51.25673 | 7021 ft | 292 kts | 202° |
| 2026-05-08 18:01 | 25.43699 | 51.25268 | 7027 ft | 295 kts | 180° |
| 2026-05-08 18:02 | 25.41643 | 51.25297 | 7022 ft | 296 kts | 180° |
| 2026-05-08 18:02 | 25.39583 | 51.25334 | 7018 ft | 295 kts | 180° |
| 2026-05-08 18:02 | 25.37552 | 51.25368 | 7020 ft | 296 kts | 180° |
| 2026-05-08 18:02 | 25.35469 | 51.25401 | 7018 ft | 296 kts | 180° |
| 2026-05-08 18:03 | 25.33409 | 51.25429 | 7020 ft | 295 kts | 180° |
| 2026-05-08 18:03 | 25.31350 | 51.25454 | 7019 ft | 296 kts | 180° |
| 2026-05-08 18:03 | 25.29314 | 51.25474 | 7019 ft | 296 kts | 180° |
| 2026-05-08 18:03 | 25.27230 | 51.25598 | 7014 ft | 296 kts | 171° |
| 2026-05-08 18:04 | 25.25278 | 51.26234 | 7019 ft | 297 kts | 159° |
| 2026-05-08 18:04 | 25.23352 | 51.27063 | 7020 ft | 297 kts | 159° |
| 2026-05-08 18:04 | 25.21423 | 51.27881 | 7018 ft | 297 kts | 159° |
| 2026-05-08 18:04 | 25.19466 | 51.28706 | 7021 ft | 297 kts | 160° |
| 2026-05-08 18:05 | 25.17559 | 51.29506 | 7020 ft | 297 kts | 160° |
| 2026-05-08 18:05 | 25.15600 | 51.30327 | 7019 ft | 298 kts | 160° |
| 2026-05-08 18:05 | 25.13668 | 51.31135 | 7019 ft | 297 kts | 160° |
| 2026-05-08 18:05 | 25.11737 | 51.31945 | 7021 ft | 297 kts | 159° |
| 2026-05-08 18:06 | 25.09796 | 51.32756 | 7021 ft | 297 kts | 160° |
| 2026-05-08 18:06 | 25.07870 | 51.33562 | 7023 ft | 296 kts | 159° |
| 2026-05-08 18:06 | 25.05965 | 51.34368 | 7019 ft | 297 kts | 159° |
| 2026-05-08 18:06 | 25.04036 | 51.35185 | 7020 ft | 297 kts | 159° |
| 2026-05-08 18:07 | 25.02109 | 51.35996 | 7021 ft | 297 kts | 160° |
| 2026-05-08 18:07 | 25.00176 | 51.36809 | 7018 ft | 296 kts | 160° |
| 2026-05-08 18:07 | 24.98250 | 51.37618 | 7012 ft | 297 kts | 160° |
| 2026-05-08 18:07 | 24.96298 | 51.38438 | 7024 ft | 296 kts | 160° |
| 2026-05-08 18:08 | 24.94373 | 51.39249 | 7029 ft | 296 kts | 160° |
| 2026-05-08 18:08 | 24.92526 | 51.40168 | 7028 ft | 296 kts | 149° |
| 2026-05-08 18:08 | 24.90829 | 51.41480 | 7490 ft | 299 kts | 144° |
| 2026-05-08 18:08 | 24.89136 | 51.42814 | 8185 ft | 300 kts | 145° |
| 2026-05-08 18:09 | 24.87402 | 51.44166 | 8856 ft | 303 kts | 145° |
| 2026-05-08 18:09 | 24.85698 | 51.45490 | 9485 ft | 304 kts | 145° |
| 2026-05-08 18:09 | 24.83962 | 51.46835 | 10130 ft | 307 kts | 146° |
| 2026-05-08 18:09 | 24.82176 | 51.48216 | 10408 ft | 323 kts | 146° |
| 2026-05-08 18:10 | 24.80283 | 51.49682 | 10551 ft | 342 kts | 146° |
| 2026-05-08 18:10 | 24.78325 | 51.51208 | 10996 ft | 348 kts | 146° |
| 2026-05-08 18:10 | 24.76349 | 51.52755 | 11635 ft | 348 kts | 146° |
| 2026-05-08 18:10 | 24.74373 | 51.54297 | 11954 ft | 346 kts | 148° |
| 2026-05-08 18:11 | 24.72268 | 51.55502 | 12021 ft | 339 kts | 161° |
| 2026-05-08 18:11 | 24.69985 | 51.56087 | 12060 ft | 338 kts | 175° |
| 2026-05-08 18:11 | 24.67632 | 51.56009 | 12626 ft | 340 kts | 188° |
| 2026-05-08 18:11 | 24.65302 | 51.55485 | 13225 ft | 343 kts | 192° |
| 2026-05-08 18:12 | 24.62957 | 51.54933 | 13764 ft | 346 kts | 192° |
| 2026-05-08 18:12 | 24.60590 | 51.54375 | 14300 ft | 350 kts | 192° |
| 2026-05-08 18:12 | 24.58161 | 51.53804 | 14827 ft | 354 kts | 192° |
| 2026-05-08 18:12 | 24.55780 | 51.53243 | 15346 ft | 357 kts | 192° |
| 2026-05-08 18:13 | 24.53336 | 51.52669 | 15857 ft | 361 kts | 192° |
| 2026-05-08 18:13 | 24.50875 | 51.52091 | 16367 ft | 363 kts | 192° |
| 2026-05-08 18:13 | 24.48386 | 51.51506 | 16839 ft | 368 kts | 192° |
| 2026-05-08 18:13 | 24.45868 | 51.50914 | 17337 ft | 371 kts | 192° |
| 2026-05-08 18:14 | 24.43326 | 51.50315 | 17823 ft | 375 kts | 192° |
| 2026-05-08 18:14 | 24.40768 | 51.49714 | 18306 ft | 379 kts | 192° |
| 2026-05-08 18:14 | 24.38182 | 51.49106 | 18801 ft | 382 kts | 192° |
| 2026-05-08 18:14 | 24.35575 | 51.48492 | 19310 ft | 385 kts | 192° |
| 2026-05-08 18:15 | 24.32916 | 51.47863 | 19828 ft | 387 kts | 192° |
| 2026-05-08 18:15 | 24.30311 | 51.47249 | 20328 ft | 390 kts | 192° |
| 2026-05-08 18:15 | 24.27647 | 51.46622 | 20824 ft | 392 kts | 192° |
| 2026-05-08 18:15 | 24.24974 | 51.45992 | 21306 ft | 394 kts | 192° |
| 2026-05-08 18:16 | 24.22277 | 51.45386 | 21764 ft | 397 kts | 189° |
| 2026-05-08 18:16 | 24.19516 | 51.45189 | 22197 ft | 400 kts | 180° |
| 2026-05-08 18:16 | 24.16717 | 51.45205 | 22618 ft | 403 kts | 181° |
| 2026-05-08 18:16 | 24.13903 | 51.45219 | 23034 ft | 406 kts | 181° |
| 2026-05-08 18:17 | 24.11073 | 51.45230 | 23426 ft | 408 kts | 181° |
| 2026-05-08 18:17 | 24.08227 | 51.45239 | 23800 ft | 410 kts | 181° |
| 2026-05-08 18:17 | 24.05367 | 51.45251 | 24178 ft | 412 kts | 181° |
| 2026-05-08 18:17 | 24.02490 | 51.45262 | 24530 ft | 414 kts | 181° |
| 2026-05-08 18:18 | 23.99601 | 51.45271 | 24892 ft | 416 kts | 181° |
| 2026-05-08 18:18 | 23.96706 | 51.45282 | 25231 ft | 418 kts | 181° |
| 2026-05-08 18:18 | 23.93793 | 51.45293 | 25571 ft | 419 kts | 181° |
| 2026-05-08 18:18 | 23.90868 | 51.45307 | 25904 ft | 421 kts | 181° |
| 2026-05-08 18:19 | 23.87938 | 51.45320 | 26228 ft | 422 kts | 181° |
| 2026-05-08 18:19 | 23.85001 | 51.45331 | 26535 ft | 423 kts | 181° |
| 2026-05-08 18:19 | 23.82048 | 51.45340 | 26842 ft | 424 kts | 181° |
| 2026-05-08 18:19 | 23.79095 | 51.45346 | 27136 ft | 425 kts | 181° |
| 2026-05-08 18:20 | 23.76131 | 51.45350 | 27408 ft | 427 kts | 181° |
| 2026-05-08 18:20 | 23.73153 | 51.45356 | 27686 ft | 428 kts | 181° |
| 2026-05-08 18:20 | 23.70166 | 51.45365 | 27970 ft | 429 kts | 181° |
| 2026-05-08 18:20 | 23.67173 | 51.45375 | 28255 ft | 431 kts | 181° |
| 2026-05-08 18:21 | 23.64174 | 51.45385 | 28538 ft | 432 kts | 181° |
| 2026-05-08 18:21 | 23.61164 | 51.45397 | 28824 ft | 433 kts | 181° |
| 2026-05-08 18:21 | 23.58145 | 51.45407 | 29104 ft | 435 kts | 182° |
| 2026-05-08 18:21 | 23.55113 | 51.45419 | 29369 ft | 436 kts | 182° |
| 2026-05-08 18:22 | 23.52082 | 51.45431 | 29705 ft | 435 kts | 182° |
| 2026-05-08 18:22 | 23.49057 | 51.45442 | 30091 ft | 434 kts | 182° |
| 2026-05-08 18:22 | 23.46047 | 51.45455 | 30487 ft | 432 kts | 182° |
| 2026-05-08 18:22 | 23.43044 | 51.45488 | 30843 ft | 431 kts | 181° |
| 2026-05-08 18:23 | 23.40046 | 51.45538 | 31194 ft | 431 kts | 181° |
| 2026-05-08 18:23 | 23.37050 | 51.45597 | 31542 ft | 430 kts | 181° |
| 2026-05-08 18:23 | 23.34053 | 51.45655 | 31881 ft | 430 kts | 181° |
| 2026-05-08 18:23 | 23.31063 | 51.45714 | 32218 ft | 430 kts | 180° |
| 2026-05-08 18:24 | 23.28082 | 51.46128 | 32551 ft | 434 kts | 168° |
| 2026-05-08 18:24 | 23.25256 | 51.47300 | 32864 ft | 440 kts | 154° |
| 2026-05-08 18:24 | 23.22737 | 51.49226 | 33175 ft | 447 kts | 140° |
| 2026-05-08 18:24 | 23.20713 | 51.51813 | 33469 ft | 454 kts | 126° |
| 2026-05-08 18:25 | 23.19285 | 51.54896 | 33749 ft | 460 kts | 116° |
| 2026-05-08 18:25 | 23.18043 | 51.58104 | 34029 ft | 460 kts | 116° |
| 2026-05-08 18:25 | 23.16805 | 51.61303 | 34331 ft | 460 kts | 116° |
| 2026-05-08 18:25 | 23.15564 | 51.64505 | 34613 ft | 460 kts | 116° |
| 2026-05-08 18:26 | 23.14325 | 51.67705 | 34895 ft | 459 kts | 116° |
| 2026-05-08 18:26 | 23.13084 | 51.70904 | 35168 ft | 459 kts | 116° |
| 2026-05-08 18:26 | 23.11843 | 51.74094 | 35432 ft | 459 kts | 116° |
| 2026-05-08 18:26 | 23.10599 | 51.77286 | 35686 ft | 458 kts | 117° |
| 2026-05-08 18:27 | 23.09354 | 51.80473 | 35938 ft | 458 kts | 117° |
| 2026-05-08 18:27 | 23.08529 | 51.82577 | 36102 ft | 458 kts | 117° |
| 2026-05-08 18:27 | 23.06862 | 51.86836 | 36401 ft | 458 kts | 117° |
| 2026-05-08 18:27 | 23.05618 | 51.90018 | 36614 ft | 458 kts | 117° |
| 2026-05-08 18:28 | 23.04373 | 51.93199 | 36809 ft | 458 kts | 117° |
| 2026-05-08 18:28 | 23.03124 | 51.96386 | 36875 ft | 460 kts | 117° |
| 2026-05-08 18:28 | 23.00609 | 52.02805 | 36879 ft | 462 kts | 116° |
| 2026-05-08 18:29 | 22.98096 | 52.09214 | 36874 ft | 461 kts | 116° |
| 2026-05-08 18:29 | 22.95585 | 52.15627 | 36879 ft | 461 kts | 116° |
| 2026-05-08 18:30 | 22.93069 | 52.22029 | 36881 ft | 461 kts | 116° |
| 2026-05-08 18:30 | 22.90550 | 52.28422 | 36884 ft | 461 kts | 116° |
| 2026-05-08 18:31 | 22.88024 | 52.34830 | 36885 ft | 461 kts | 116° |
| 2026-05-08 18:31 | 22.85501 | 52.41226 | 36885 ft | 462 kts | 116° |
| 2026-05-08 18:32 | 22.83023 | 52.47645 | 36883 ft | 464 kts | 111° |
| 2026-05-08 18:32 | 22.81784 | 52.54541 | 36884 ft | 469 kts | 100° |
| 2026-05-08 18:33 | 22.80949 | 52.61544 | 36883 ft | 469 kts | 100° |
| 2026-05-08 18:33 | 22.80093 | 52.68548 | 36881 ft | 469 kts | 100° |
| 2026-05-08 18:34 | 22.79236 | 52.75554 | 36876 ft | 469 kts | 100° |
| 2026-05-08 18:34 | 22.78377 | 52.82576 | 36871 ft | 470 kts | 100° |
| 2026-05-08 18:35 | 22.77524 | 52.89584 | 36866 ft | 470 kts | 100° |
| 2026-05-08 18:35 | 22.76661 | 52.96606 | 36866 ft | 470 kts | 100° |
| 2026-05-08 18:36 | 22.75799 | 53.03622 | 36867 ft | 470 kts | 100° |
| 2026-05-08 18:36 | 22.74932 | 53.10639 | 36868 ft | 470 kts | 101° |
| 2026-05-08 18:37 | 22.74059 | 53.17651 | 36868 ft | 470 kts | 100° |
| 2026-05-08 18:37 | 22.73187 | 53.24662 | 36868 ft | 470 kts | 100° |
| 2026-05-08 18:38 | 22.72310 | 53.31667 | 36868 ft | 469 kts | 100° |
| 2026-05-08 18:38 | 22.71432 | 53.38675 | 36867 ft | 469 kts | 100° |
| 2026-05-08 18:39 | 22.70549 | 53.45681 | 36866 ft | 469 kts | 100° |
| 2026-05-08 18:39 | 22.69669 | 53.52645 | 36866 ft | 470 kts | 101° |
| 2026-05-08 18:40 | 22.68782 | 53.59651 | 36866 ft | 470 kts | 101° |
| 2026-05-08 18:40 | 22.67893 | 53.66656 | 36866 ft | 469 kts | 100° |
| 2026-05-08 18:41 | 22.67151 | 53.72526 | 36865 ft | 470 kts | 100° |
| 2026-05-08 18:41 | 22.66110 | 53.80668 | 36864 ft | 470 kts | 101° |
| 2026-05-08 18:42 | 22.65206 | 53.87665 | 36864 ft | 470 kts | 101° |
| 2026-05-08 18:42 | 22.64444 | 53.93533 | 36865 ft | 470 kts | 101° |
| 2026-05-08 18:43 | 22.63538 | 54.00528 | 36866 ft | 469 kts | 101° |
| 2026-05-08 18:43 | 22.62630 | 54.07520 | 36866 ft | 469 kts | 101° |
| 2026-05-08 18:44 | 22.61717 | 54.14513 | 36865 ft | 469 kts | 101° |
| 2026-05-08 18:44 | 22.60810 | 54.21509 | 36866 ft | 469 kts | 101° |
| 2026-05-08 18:45 | 22.59897 | 54.28496 | 36864 ft | 469 kts | 101° |
| 2026-05-08 18:45 | 22.58972 | 54.35483 | 36865 ft | 469 kts | 101° |
| 2026-05-08 18:46 | 22.58042 | 54.42464 | 36866 ft | 469 kts | 101° |
| 2026-05-08 18:46 | 22.57117 | 54.49444 | 36865 ft | 468 kts | 101° |
| 2026-05-08 18:47 | 22.56187 | 54.56419 | 36861 ft | 468 kts | 101° |
| 2026-05-08 18:47 | 22.55256 | 54.63387 | 36852 ft | 468 kts | 101° |
| 2026-05-08 18:48 | 22.54332 | 54.70363 | 36860 ft | 468 kts | 101° |
| 2026-05-08 18:48 | 22.53390 | 54.77330 | 36871 ft | 468 kts | 101° |
| 2026-05-08 18:49 | 22.52451 | 54.84254 | 36877 ft | 468 kts | 101° |
| 2026-05-08 18:49 | 22.51507 | 54.91273 | 36882 ft | 468 kts | 101° |
| 2026-05-08 18:50 | 22.50564 | 54.98229 | 36884 ft | 468 kts | 101° |
| 2026-05-08 18:50 | 22.49612 | 55.05192 | 36880 ft | 468 kts | 101° |
| 2026-05-08 18:51 | 22.48658 | 55.12153 | 36884 ft | 468 kts | 101° |
| 2026-05-08 18:51 | 22.47707 | 55.19119 | 36886 ft | 468 kts | 101° |
| 2026-05-08 18:52 | 22.46750 | 55.26061 | 36887 ft | 467 kts | 101° |
| 2026-05-08 18:52 | 22.45841 | 55.32960 | 36883 ft | 468 kts | 96° |
| 2026-05-08 18:53 | 22.46347 | 55.39979 | 36880 ft | 472 kts | 77° |
| 2026-05-08 18:53 | 22.48609 | 55.46658 | 36881 ft | 473 kts | 69° |
| 2026-05-08 18:54 | 22.51099 | 55.53249 | 36875 ft | 474 kts | 69° |
| 2026-05-08 18:54 | 22.53578 | 55.59850 | 36883 ft | 474 kts | 69° |
| 2026-05-08 18:55 | 22.57278 | 55.69761 | 36873 ft | 473 kts | 69° |
| 2026-05-08 18:56 | 22.59746 | 55.76360 | 36865 ft | 473 kts | 69° |
| 2026-05-08 18:56 | 22.62218 | 55.82972 | 36860 ft | 473 kts | 69° |
| 2026-05-08 18:57 | 22.64680 | 55.89579 | 36858 ft | 473 kts | 69° |
| 2026-05-08 18:57 | 22.67133 | 55.96194 | 36857 ft | 474 kts | 69° |
| 2026-05-08 18:58 | 22.69588 | 56.02809 | 36859 ft | 474 kts | 69° |
| 2026-05-08 18:58 | 22.72049 | 56.09435 | 36860 ft | 473 kts | 69° |
| 2026-05-08 18:59 | 22.74495 | 56.16049 | 36861 ft | 473 kts | 69° |
| 2026-05-08 18:59 | 22.76941 | 56.22662 | 36861 ft | 473 kts | 69° |
| 2026-05-08 19:00 | 22.79376 | 56.29227 | 36857 ft | 473 kts | 69° |
| 2026-05-08 19:00 | 22.81823 | 56.35854 | 36853 ft | 473 kts | 69° |
| 2026-05-08 19:01 | 22.83594 | 56.42682 | 36850 ft | 471 kts | 80° |
| 2026-05-08 19:01 | 22.84895 | 56.49633 | 36849 ft | 471 kts | 79° |
| 2026-05-08 19:02 | 22.86231 | 56.56579 | 36849 ft | 471 kts | 79° |
| 2026-05-08 19:02 | 22.87564 | 56.63528 | 36848 ft | 471 kts | 79° |
| 2026-05-08 19:03 | 22.88885 | 56.70488 | 36768 ft | 469 kts | 80° |
| 2026-05-08 19:03 | 22.90193 | 56.77413 | 36762 ft | 469 kts | 80° |
| 2026-05-08 19:04 | 22.91499 | 56.84349 | 36764 ft | 470 kts | 80° |
| 2026-05-08 19:04 | 22.92801 | 56.91294 | 36770 ft | 470 kts | 80° |
| 2026-05-08 19:05 | 22.94103 | 56.98254 | 36777 ft | 470 kts | 80° |
| 2026-05-08 19:05 | 22.95401 | 57.05202 | 36780 ft | 470 kts | 80° |
| 2026-05-08 19:06 | 22.96696 | 57.12150 | 36780 ft | 470 kts | 80° |
| 2026-05-08 19:06 | 22.97988 | 57.19099 | 36780 ft | 470 kts | 80° |
| 2026-05-08 19:07 | 22.99276 | 57.26062 | 36780 ft | 470 kts | 80° |
| 2026-05-08 19:07 | 23.00894 | 57.32924 | 36779 ft | 471 kts | 70° |
| 2026-05-08 19:08 | 23.03213 | 57.39572 | 36780 ft | 471 kts | 70° |
| 2026-05-08 19:08 | 23.05541 | 57.46234 | 36778 ft | 471 kts | 70° |
| 2026-05-08 19:09 | 23.07858 | 57.52890 | 36778 ft | 471 kts | 70° |
| 2026-05-08 19:09 | 23.10163 | 57.59554 | 36776 ft | 472 kts | 70° |
| 2026-05-08 19:10 | 23.12473 | 57.66220 | 36776 ft | 472 kts | 70° |
| 2026-05-08 19:10 | 23.14779 | 57.72896 | 36772 ft | 471 kts | 70° |
| 2026-05-08 19:11 | 23.17070 | 57.79559 | 36775 ft | 471 kts | 70° |
| 2026-05-08 19:11 | 23.19370 | 57.86217 | 36770 ft | 471 kts | 70° |
| 2026-05-08 19:12 | 23.21669 | 57.92874 | 36770 ft | 471 kts | 70° |
| 2026-05-08 19:12 | 23.23960 | 57.99548 | 36769 ft | 471 kts | 70° |
| 2026-05-08 19:13 | 23.26320 | 58.06184 | 36767 ft | 471 kts | 68° |
| 2026-05-08 19:13 | 23.28869 | 58.12741 | 36770 ft | 471 kts | 67° |
| 2026-05-08 19:14 | 23.31448 | 58.19287 | 36769 ft | 471 kts | 68° |
| 2026-05-08 19:14 | 23.33960 | 58.25812 | 36771 ft | 471 kts | 68° |
| 2026-05-08 19:15 | 23.36463 | 58.32408 | 36770 ft | 471 kts | 68° |
| 2026-05-08 19:15 | 23.38955 | 58.38991 | 36769 ft | 470 kts | 68° |
| 2026-05-08 19:16 | 23.41451 | 58.45573 | 36766 ft | 470 kts | 68° |
| 2026-05-08 19:16 | 23.43905 | 58.52179 | 36770 ft | 471 kts | 69° |
| 2026-05-08 19:17 | 23.46318 | 58.58805 | 36767 ft | 471 kts | 69° |
| 2026-05-08 19:17 | 23.48738 | 58.65448 | 36767 ft | 471 kts | 69° |
| 2026-05-08 19:18 | 23.51164 | 58.72070 | 36768 ft | 471 kts | 69° |
| 2026-05-08 19:18 | 23.53588 | 58.78700 | 36770 ft | 471 kts | 69° |
| 2026-05-08 19:19 | 23.56011 | 58.85345 | 36769 ft | 471 kts | 69° |
| 2026-05-08 19:19 | 23.58429 | 58.91980 | 36770 ft | 471 kts | 69° |
| 2026-05-08 19:20 | 23.60853 | 58.98616 | 36770 ft | 471 kts | 69° |
| 2026-05-08 19:20 | 23.63264 | 59.05259 | 36769 ft | 472 kts | 69° |
| 2026-05-08 19:21 | 23.65671 | 59.11909 | 36770 ft | 472 kts | 69° |
| 2026-05-08 19:21 | 23.68082 | 59.18570 | 36773 ft | 471 kts | 69° |
| 2026-05-08 19:22 | 23.70470 | 59.25179 | 36773 ft | 471 kts | 69° |
| 2026-05-08 19:22 | 23.72892 | 59.31876 | 36775 ft | 471 kts | 69° |
| 2026-05-08 19:23 | 23.75288 | 59.38536 | 36779 ft | 472 kts | 69° |
| 2026-05-08 19:23 | 23.77670 | 59.45165 | 36780 ft | 472 kts | 69° |
| 2026-05-08 19:24 | 23.79828 | 59.51912 | 36779 ft | 470 kts | 79° |
| 2026-05-08 19:24 | 23.80977 | 59.58981 | 36781 ft | 470 kts | 81° |
| 2026-05-08 19:25 | 23.82083 | 59.65963 | 36777 ft | 470 kts | 81° |
| 2026-05-08 19:25 | 23.83202 | 59.73004 | 36778 ft | 470 kts | 81° |
| 2026-05-08 19:26 | 23.84319 | 59.80035 | 36779 ft | 470 kts | 81° |
| 2026-05-08 19:26 | 23.85427 | 59.87069 | 36778 ft | 470 kts | 81° |
| 2026-05-08 19:27 | 23.86535 | 59.94108 | 36785 ft | 470 kts | 81° |
| 2026-05-08 19:27 | 23.87650 | 60.01160 | 36795 ft | 471 kts | 81° |
| 2026-05-08 19:28 | 23.88750 | 60.08208 | 36800 ft | 471 kts | 81° |
| 2026-05-08 19:28 | 23.89851 | 60.15259 | 36805 ft | 471 kts | 81° |
| 2026-05-08 19:29 | 23.90765 | 60.21127 | 36807 ft | 471 kts | 81° |
| 2026-05-08 19:29 | 23.91863 | 60.28184 | 36808 ft | 471 kts | 81° |
| 2026-05-08 19:30 | 23.92960 | 60.35248 | 36810 ft | 472 kts | 81° |
| 2026-05-08 19:30 | 23.94047 | 60.42330 | 36817 ft | 472 kts | 81° |
| 2026-05-08 19:31 | 23.95130 | 60.49402 | 36817 ft | 472 kts | 81° |
| 2026-05-08 19:31 | 23.96215 | 60.56469 | 36824 ft | 472 kts | 81° |
| 2026-05-08 19:32 | 23.97300 | 60.63537 | 36823 ft | 472 kts | 81° |
| 2026-05-08 19:32 | 23.98377 | 60.70569 | 36825 ft | 471 kts | 81° |
| 2026-05-08 19:33 | 23.99455 | 60.77633 | 36838 ft | 471 kts | 81° |
| 2026-05-08 19:33 | 24.00526 | 60.84696 | 36849 ft | 471 kts | 81° |
| 2026-05-08 19:34 | 24.01588 | 60.91765 | 36851 ft | 471 kts | 81° |
| 2026-05-08 19:34 | 24.02649 | 60.98849 | 36846 ft | 471 kts | 81° |
| 2026-05-08 19:35 | 24.03710 | 61.05916 | 36846 ft | 471 kts | 81° |
| 2026-05-08 19:35 | 24.04773 | 61.12983 | 36840 ft | 471 kts | 81° |
| 2026-05-08 19:36 | 24.05829 | 61.20048 | 36842 ft | 471 kts | 81° |
| 2026-05-08 19:36 | 24.06888 | 61.27123 | 36840 ft | 471 kts | 81° |
| 2026-05-08 19:37 | 24.07933 | 61.34187 | 36843 ft | 470 kts | 81° |
| 2026-05-08 19:37 | 24.08963 | 61.41251 | 36846 ft | 470 kts | 81° |
| 2026-05-08 19:38 | 24.09994 | 61.48312 | 36845 ft | 470 kts | 81° |
| 2026-05-08 19:38 | 24.11035 | 61.55379 | 36845 ft | 470 kts | 81° |
| 2026-05-08 19:39 | 24.12064 | 61.62435 | 36847 ft | 469 kts | 81° |
| 2026-05-08 19:39 | 24.13087 | 61.69488 | 36846 ft | 469 kts | 81° |
| 2026-05-08 19:40 | 24.14114 | 61.76540 | 36846 ft | 469 kts | 81° |
| 2026-05-08 19:40 | 24.15126 | 61.83609 | 36847 ft | 469 kts | 82° |
| 2026-05-08 19:41 | 24.16090 | 61.90671 | 36849 ft | 469 kts | 82° |
| 2026-05-08 19:41 | 24.17036 | 61.97732 | 36852 ft | 469 kts | 82° |
| 2026-05-08 19:42 | 24.17987 | 62.04790 | 36851 ft | 469 kts | 82° |
| 2026-05-08 19:42 | 24.18937 | 62.11863 | 36853 ft | 469 kts | 82° |
| 2026-05-08 19:43 | 24.19879 | 62.18883 | 36853 ft | 469 kts | 82° |
| 2026-05-08 19:43 | 24.20834 | 62.25996 | 36854 ft | 469 kts | 82° |
| 2026-05-08 19:44 | 24.21781 | 62.33064 | 36856 ft | 469 kts | 82° |
| 2026-05-08 19:44 | 24.22716 | 62.40134 | 36857 ft | 469 kts | 82° |
| 2026-05-08 19:45 | 24.23648 | 62.47173 | 36859 ft | 469 kts | 82° |
| 2026-05-08 19:45 | 24.24586 | 62.54250 | 36858 ft | 470 kts | 82° |
| 2026-05-08 19:46 | 24.25514 | 62.61333 | 36856 ft | 470 kts | 82° |
| 2026-05-08 19:46 | 24.26903 | 62.71966 | 36856 ft | 470 kts | 82° |
| 2026-05-08 19:47 | 24.27827 | 62.79057 | 36859 ft | 470 kts | 82° |
| 2026-05-08 19:47 | 24.28755 | 62.86148 | 36862 ft | 470 kts | 82° |
| 2026-05-08 19:48 | 24.29672 | 62.93255 | 36865 ft | 470 kts | 82° |
| 2026-05-08 19:48 | 24.30583 | 63.00351 | 36868 ft | 470 kts | 82° |
| 2026-05-08 19:49 | 24.31491 | 63.07447 | 36868 ft | 470 kts | 82° |
| 2026-05-08 19:49 | 24.32396 | 63.14543 | 36867 ft | 470 kts | 82° |
| 2026-05-08 19:50 | 24.33301 | 63.21650 | 36867 ft | 470 kts | 82° |
| 2026-05-08 19:50 | 24.34200 | 63.28748 | 36869 ft | 470 kts | 82° |
| 2026-05-08 19:51 | 24.35096 | 63.35848 | 36870 ft | 470 kts | 82° |
| 2026-05-08 19:51 | 24.35990 | 63.42948 | 36873 ft | 470 kts | 82° |
| 2026-05-08 19:52 | 24.36873 | 63.50013 | 36877 ft | 470 kts | 82° |
| 2026-05-08 19:52 | 24.37751 | 63.57113 | 36877 ft | 470 kts | 82° |
| 2026-05-08 19:53 | 24.38636 | 63.64213 | 36877 ft | 470 kts | 82° |
| 2026-05-08 19:53 | 24.39509 | 63.71308 | 36875 ft | 469 kts | 82° |
| 2026-05-08 19:54 | 24.40376 | 63.78399 | 36874 ft | 469 kts | 82° |
| 2026-05-08 19:54 | 24.41253 | 63.85500 | 36873 ft | 469 kts | 82° |
| 2026-05-08 19:55 | 24.42126 | 63.92589 | 36870 ft | 469 kts | 82° |
| 2026-05-08 19:55 | 24.42992 | 63.99671 | 36874 ft | 468 kts | 82° |
| 2026-05-08 19:56 | 24.43856 | 64.06754 | 36874 ft | 469 kts | 82° |
| 2026-05-08 19:56 | 24.44709 | 64.13841 | 36879 ft | 469 kts | 82° |
| 2026-05-08 19:57 | 24.45561 | 64.20930 | 36878 ft | 469 kts | 82° |
| 2026-05-08 19:57 | 24.46405 | 64.28037 | 36880 ft | 469 kts | 82° |
| 2026-05-08 19:58 | 24.47252 | 64.35130 | 36880 ft | 469 kts | 82° |
| 2026-05-08 19:58 | 24.48105 | 64.42228 | 36879 ft | 469 kts | 82° |
| 2026-05-08 19:59 | 24.48946 | 64.49329 | 36878 ft | 469 kts | 82° |
| 2026-05-08 19:59 | 24.49787 | 64.56428 | 36874 ft | 469 kts | 82° |
| 2026-05-08 20:00 | 24.50627 | 64.63545 | 36872 ft | 470 kts | 82° |
| 2026-05-08 20:00 | 24.51457 | 64.70647 | 36872 ft | 470 kts | 82° |
| 2026-05-08 20:01 | 24.52286 | 64.77771 | 36871 ft | 470 kts | 82° |
| 2026-05-08 20:01 | 24.53139 | 64.84884 | 36870 ft | 470 kts | 80° |
| 2026-05-08 20:02 | 24.54293 | 64.91944 | 36870 ft | 470 kts | 77° |
| 2026-05-08 20:02 | 24.55598 | 64.98987 | 36867 ft | 470 kts | 77° |
| 2026-05-08 20:03 | 24.56856 | 65.06030 | 36870 ft | 470 kts | 78° |
| 2026-05-08 20:03 | 24.58044 | 65.13089 | 36872 ft | 470 kts | 78° |
| 2026-05-08 20:04 | 24.59215 | 65.20149 | 36870 ft | 470 kts | 78° |
| 2026-05-08 20:04 | 24.60396 | 65.27215 | 36868 ft | 469 kts | 78° |
| 2026-05-08 20:05 | 24.61586 | 65.34265 | 36870 ft | 470 kts | 78° |
| 2026-05-08 20:05 | 24.62754 | 65.41276 | 36871 ft | 470 kts | 78° |
| 2026-05-08 20:06 | 24.63911 | 65.48390 | 36870 ft | 470 kts | 78° |
| 2026-05-08 20:06 | 24.65051 | 65.55425 | 36872 ft | 470 kts | 78° |
| 2026-05-08 20:07 | 24.66206 | 65.62496 | 36870 ft | 470 kts | 78° |
| 2026-05-08 20:07 | 24.67372 | 65.69566 | 36870 ft | 470 kts | 78° |
| 2026-05-08 20:08 | 24.68521 | 65.76652 | 36872 ft | 470 kts | 78° |
| 2026-05-08 20:08 | 24.69675 | 65.83732 | 36871 ft | 470 kts | 78° |
| 2026-05-08 20:09 | 24.70823 | 65.90811 | 36872 ft | 471 kts | 78° |
| 2026-05-08 20:09 | 24.71962 | 65.97899 | 36873 ft | 471 kts | 78° |
| 2026-05-08 20:10 | 24.73096 | 66.04995 | 36874 ft | 471 kts | 78° |
| 2026-05-08 20:10 | 24.74234 | 66.12086 | 36872 ft | 471 kts | 77° |
| 2026-05-08 20:11 | 24.75364 | 66.19187 | 36873 ft | 471 kts | 78° |
| 2026-05-08 20:11 | 24.76492 | 66.26290 | 36873 ft | 472 kts | 78° |
| 2026-05-08 20:12 | 24.77619 | 66.33403 | 36875 ft | 472 kts | 78° |
| 2026-05-08 20:12 | 24.78749 | 66.40529 | 36878 ft | 472 kts | 77° |
| 2026-05-08 20:13 | 24.79869 | 66.47651 | 36877 ft | 473 kts | 78° |
| 2026-05-08 20:13 | 24.80985 | 66.54783 | 36872 ft | 473 kts | 77° |
| 2026-05-08 20:14 | 24.82086 | 66.61876 | 36875 ft | 473 kts | 78° |
| 2026-05-08 20:14 | 24.83194 | 66.69020 | 36875 ft | 474 kts | 77° |
| 2026-05-08 20:15 | 24.84361 | 66.76158 | 36876 ft | 474 kts | 77° |
| 2026-05-08 20:15 | 24.85558 | 66.83293 | 36873 ft | 474 kts | 77° |
| 2026-05-08 20:16 | 24.86739 | 66.90449 | 36875 ft | 475 kts | 77° |
| 2026-05-08 20:16 | 24.87892 | 66.97612 | 36878 ft | 475 kts | 77° |
| 2026-05-08 20:17 | 24.89047 | 67.04776 | 36877 ft | 476 kts | 77° |
| 2026-05-08 20:17 | 24.90021 | 67.10745 | 36874 ft | 475 kts | 74° |
| 2026-05-08 20:18 | 24.92362 | 67.17479 | 36872 ft | 465 kts | 55° |
| 2026-05-08 20:18 | 24.96357 | 67.22893 | 36872 ft | 454 kts | 36° |
| 2026-05-08 20:19 | 25.01201 | 67.27322 | 36870 ft | 453 kts | 35° |
| 2026-05-08 20:19 | 25.06081 | 67.31818 | 36872 ft | 454 kts | 35° |
| 2026-05-08 20:20 | 25.10884 | 67.36262 | 36880 ft | 454 kts | 35° |
| 2026-05-08 20:20 | 25.15729 | 67.40733 | 36883 ft | 454 kts | 35° |
| 2026-05-08 20:21 | 25.20573 | 67.45206 | 36879 ft | 454 kts | 35° |
| 2026-05-08 20:21 | 25.25430 | 67.49690 | 36877 ft | 454 kts | 34° |
| 2026-05-08 20:22 | 25.30300 | 67.54136 | 36884 ft | 454 kts | 34° |
| 2026-05-08 20:22 | 25.35171 | 67.58576 | 36886 ft | 454 kts | 34° |
| 2026-05-08 20:23 | 25.40047 | 67.63042 | 36883 ft | 455 kts | 34° |
| 2026-05-08 20:23 | 25.44910 | 67.67505 | 36879 ft | 455 kts | 34° |
| 2026-05-08 20:24 | 25.49774 | 67.71978 | 36881 ft | 455 kts | 34° |
| 2026-05-08 20:24 | 25.54652 | 67.76457 | 36884 ft | 455 kts | 34° |
| 2026-05-08 20:25 | 25.59520 | 67.80926 | 36884 ft | 455 kts | 34° |
| 2026-05-08 20:25 | 25.64390 | 67.85402 | 36888 ft | 455 kts | 34° |
| 2026-05-08 20:26 | 25.69253 | 67.89894 | 36889 ft | 455 kts | 34° |
| 2026-05-08 20:26 | 25.74109 | 67.94379 | 36885 ft | 454 kts | 34° |
| 2026-05-08 20:27 | 25.78972 | 67.98865 | 36891 ft | 454 kts | 34° |
| 2026-05-08 20:27 | 25.83830 | 68.03352 | 36887 ft | 455 kts | 34° |
| 2026-05-08 20:28 | 25.88654 | 68.07825 | 36888 ft | 455 kts | 34° |
| 2026-05-08 20:28 | 25.93510 | 68.12331 | 36888 ft | 455 kts | 34° |
| 2026-05-08 20:29 | 25.98365 | 68.16839 | 36884 ft | 455 kts | 34° |
| 2026-05-08 20:29 | 26.03219 | 68.21346 | 36884 ft | 455 kts | 34° |
| 2026-05-08 20:30 | 26.08070 | 68.25857 | 36873 ft | 455 kts | 33° |
| 2026-05-08 20:30 | 26.12923 | 68.30372 | 36872 ft | 455 kts | 33° |
| 2026-05-08 20:31 | 26.17469 | 68.34606 | 36879 ft | 454 kts | 34° |
| 2026-05-08 20:31 | 26.22300 | 68.39116 | 36859 ft | 452 kts | 33° |
| 2026-05-08 20:32 | 26.27234 | 68.43420 | 36859 ft | 449 kts | 31° |
| 2026-05-08 20:32 | 26.32242 | 68.47562 | 36860 ft | 448 kts | 30° |
| 2026-05-08 20:33 | 26.37232 | 68.51722 | 36859 ft | 448 kts | 31° |
| 2026-05-08 20:33 | 26.42195 | 68.55944 | 36866 ft | 449 kts | 31° |
| 2026-05-08 20:34 | 26.47148 | 68.60192 | 36874 ft | 449 kts | 31° |
| 2026-05-08 20:35 | 26.54571 | 68.66536 | 36882 ft | 447 kts | 30° |
| 2026-05-08 20:35 | 26.59520 | 68.70760 | 36880 ft | 447 kts | 30° |
| 2026-05-08 20:36 | 26.64459 | 68.74976 | 36881 ft | 447 kts | 30° |
| 2026-05-08 20:36 | 26.69399 | 68.79179 | 36882 ft | 446 kts | 30° |
| 2026-05-08 20:37 | 26.74331 | 68.83381 | 36884 ft | 446 kts | 30° |
| 2026-05-08 20:37 | 26.79258 | 68.87588 | 36874 ft | 445 kts | 30° |
| 2026-05-08 20:38 | 26.84170 | 68.91792 | 36869 ft | 444 kts | 30° |
| 2026-05-08 20:38 | 26.89074 | 68.95994 | 36866 ft | 444 kts | 30° |
| 2026-05-08 20:39 | 26.93979 | 69.00190 | 36864 ft | 443 kts | 30° |
| 2026-05-08 20:39 | 26.98877 | 69.04377 | 36865 ft | 443 kts | 30° |
| 2026-05-08 20:40 | 27.03768 | 69.08580 | 36864 ft | 442 kts | 30° |
| 2026-05-08 20:40 | 27.08643 | 69.12776 | 36865 ft | 441 kts | 30° |
| 2026-05-08 20:41 | 27.13518 | 69.16955 | 36863 ft | 441 kts | 30° |
| 2026-05-08 20:41 | 27.18388 | 69.21140 | 36862 ft | 441 kts | 30° |
| 2026-05-08 20:42 | 27.23240 | 69.25340 | 36864 ft | 440 kts | 30° |
| 2026-05-08 20:42 | 27.28089 | 69.29541 | 36864 ft | 440 kts | 30° |
| 2026-05-08 20:43 | 27.32899 | 69.33797 | 36863 ft | 440 kts | 30° |
| 2026-05-08 20:43 | 27.37685 | 69.38082 | 36866 ft | 440 kts | 30° |
| 2026-05-08 20:44 | 27.42469 | 69.42364 | 36867 ft | 439 kts | 30° |
| 2026-05-08 20:44 | 27.47249 | 69.46635 | 36865 ft | 438 kts | 30° |
| 2026-05-08 20:45 | 27.52010 | 69.50891 | 36869 ft | 437 kts | 30° |
| 2026-05-08 20:45 | 27.56772 | 69.55149 | 36871 ft | 437 kts | 30° |
| 2026-05-08 20:46 | 27.61531 | 69.59398 | 36872 ft | 436 kts | 30° |
| 2026-05-08 20:46 | 27.66278 | 69.63648 | 36874 ft | 435 kts | 30° |
| 2026-05-08 20:47 | 27.71010 | 69.67890 | 36865 ft | 434 kts | 30° |
| 2026-05-08 20:47 | 27.75729 | 69.72139 | 36855 ft | 434 kts | 30° |
| 2026-05-08 20:48 | 27.80444 | 69.76377 | 36850 ft | 433 kts | 30° |
| 2026-05-08 20:48 | 27.85155 | 69.80613 | 36848 ft | 432 kts | 30° |
| 2026-05-08 20:49 | 27.89858 | 69.84846 | 36847 ft | 432 kts | 30° |
| 2026-05-08 20:49 | 27.94553 | 69.89090 | 36840 ft | 432 kts | 30° |
| 2026-05-08 20:50 | 27.99214 | 69.93307 | 36835 ft | 432 kts | 30° |
| 2026-05-08 20:50 | 28.03929 | 69.97577 | 36832 ft | 432 kts | 30° |
| 2026-05-08 20:51 | 28.08595 | 70.01795 | 36831 ft | 432 kts | 30° |
| 2026-05-08 20:51 | 28.13283 | 70.06041 | 36834 ft | 431 kts | 30° |
| 2026-05-08 20:52 | 28.17965 | 70.10294 | 36834 ft | 431 kts | 30° |
| 2026-05-08 20:52 | 28.22642 | 70.14542 | 36826 ft | 431 kts | 29° |
| 2026-05-08 20:53 | 28.27315 | 70.18793 | 36826 ft | 431 kts | 30° |
| 2026-05-08 20:53 | 28.31984 | 70.23052 | 36828 ft | 430 kts | 30° |
| 2026-05-08 20:54 | 28.36678 | 70.27234 | 36831 ft | 424 kts | 24° |
| 2026-05-08 20:54 | 28.41750 | 70.30471 | 36836 ft | 417 kts | 20° |
| 2026-05-08 20:55 | 28.46845 | 70.33616 | 36836 ft | 417 kts | 20° |
| 2026-05-08 20:55 | 28.51931 | 70.36774 | 36840 ft | 416 kts | 20° |
| 2026-05-08 20:55 | 28.54470 | 70.38347 | 36624 ft | 415 kts | 20° |
| 2026-05-08 20:56 | 28.56999 | 70.39914 | 36375 ft | 414 kts | 20° |
| 2026-05-08 20:56 | 28.59524 | 70.41482 | 36120 ft | 414 kts | 20° |
| 2026-05-08 20:56 | 28.62057 | 70.43058 | 35870 ft | 415 kts | 20° |
| 2026-05-08 20:56 | 28.64596 | 70.44638 | 35632 ft | 417 kts | 19° |
| 2026-05-08 20:57 | 28.67153 | 70.46229 | 35378 ft | 419 kts | 20° |
| 2026-05-08 20:57 | 28.69707 | 70.47820 | 34867 ft | 420 kts | 19° |
| 2026-05-08 20:57 | 28.72283 | 70.49422 | 34102 ft | 423 kts | 20° |
| 2026-05-08 20:57 | 28.74869 | 70.51032 | 33479 ft | 422 kts | 20° |
| 2026-05-08 20:58 | 28.77433 | 70.52635 | 33002 ft | 418 kts | 20° |
| 2026-05-08 20:58 | 28.79974 | 70.54228 | 32500 ft | 415 kts | 21° |
| 2026-05-08 20:58 | 28.82497 | 70.55810 | 31986 ft | 412 kts | 21° |
| 2026-05-08 20:58 | 28.84999 | 70.57376 | 31488 ft | 410 kts | 21° |
| 2026-05-08 20:59 | 28.87495 | 70.58932 | 30983 ft | 407 kts | 22° |
| 2026-05-08 20:59 | 28.89969 | 70.60474 | 30477 ft | 404 kts | 22° |
| 2026-05-08 20:59 | 28.92429 | 70.62010 | 29976 ft | 401 kts | 23° |
| 2026-05-08 20:59 | 28.94861 | 70.63532 | 29478 ft | 398 kts | 23° |
| 2026-05-08 21:00 | 28.97280 | 70.65046 | 28985 ft | 395 kts | 23° |
| 2026-05-08 21:00 | 28.99678 | 70.66548 | 28488 ft | 392 kts | 24° |
| 2026-05-08 21:00 | 29.02051 | 70.68039 | 28009 ft | 389 kts | 24° |
| 2026-05-08 21:00 | 29.04416 | 70.69525 | 27536 ft | 386 kts | 24° |
| 2026-05-08 21:01 | 29.06771 | 70.71006 | 27063 ft | 384 kts | 24° |
| 2026-05-08 21:01 | 29.09099 | 70.72472 | 26614 ft | 381 kts | 25° |
| 2026-05-08 21:01 | 29.11412 | 70.73929 | 26167 ft | 379 kts | 25° |
| 2026-05-08 21:01 | 29.13716 | 70.75377 | 25740 ft | 376 kts | 25° |
| 2026-05-08 21:02 | 29.15233 | 70.76330 | 25458 ft | 375 kts | 25° |
| 2026-05-08 21:02 | 29.17513 | 70.77762 | 25036 ft | 373 kts | 25° |
| 2026-05-08 21:02 | 29.19782 | 70.79190 | 24620 ft | 371 kts | 26° |
| 2026-05-08 21:02 | 29.22040 | 70.80611 | 24212 ft | 370 kts | 26° |
| 2026-05-08 21:03 | 29.24288 | 70.82027 | 23791 ft | 368 kts | 26° |
| 2026-05-08 21:03 | 29.26524 | 70.83436 | 23378 ft | 366 kts | 26° |
| 2026-05-08 21:03 | 29.28750 | 70.84837 | 22955 ft | 364 kts | 26° |
| 2026-05-08 21:03 | 29.30966 | 70.86234 | 22516 ft | 362 kts | 26° |
| 2026-05-08 21:04 | 29.33161 | 70.87622 | 22088 ft | 359 kts | 26° |
| 2026-05-08 21:04 | 29.35343 | 70.89002 | 21641 ft | 357 kts | 26° |
| 2026-05-08 21:04 | 29.37511 | 70.90369 | 21196 ft | 354 kts | 26° |
| 2026-05-08 21:04 | 29.39661 | 70.91727 | 20743 ft | 351 kts | 26° |
| 2026-05-08 21:05 | 29.41790 | 70.93074 | 20295 ft | 348 kts | 26° |
| 2026-05-08 21:05 | 29.43903 | 70.94416 | 19840 ft | 345 kts | 26° |
| 2026-05-08 21:05 | 29.45995 | 70.95748 | 19386 ft | 342 kts | 26° |
| 2026-05-08 21:05 | 29.48067 | 70.97066 | 18926 ft | 340 kts | 26° |
| 2026-05-08 21:06 | 29.50132 | 70.98375 | 18435 ft | 338 kts | 26° |
| 2026-05-08 21:06 | 29.52196 | 70.99656 | 17940 ft | 336 kts | 25° |
| 2026-05-08 21:06 | 29.54257 | 71.00899 | 17453 ft | 334 kts | 24° |
| 2026-05-08 21:06 | 29.56320 | 71.02126 | 16955 ft | 333 kts | 24° |
| 2026-05-08 21:07 | 29.58370 | 71.03344 | 16484 ft | 331 kts | 24° |
| 2026-05-08 21:07 | 29.60409 | 71.04560 | 16006 ft | 330 kts | 24° |
| 2026-05-08 21:07 | 29.62436 | 71.05775 | 15526 ft | 328 kts | 24° |
| 2026-05-08 21:07 | 29.64451 | 71.06988 | 15066 ft | 327 kts | 24° |
| 2026-05-08 21:08 | 29.66462 | 71.08200 | 14593 ft | 326 kts | 24° |
| 2026-05-08 21:08 | 29.68460 | 71.09403 | 14126 ft | 324 kts | 25° |
| 2026-05-08 21:08 | 29.70457 | 71.10610 | 13670 ft | 323 kts | 24° |
| 2026-05-08 21:08 | 29.72448 | 71.11817 | 13213 ft | 322 kts | 25° |
| 2026-05-08 21:09 | 29.74427 | 71.13019 | 12746 ft | 321 kts | 24° |
| 2026-05-08 21:09 | 29.76400 | 71.14214 | 12300 ft | 320 kts | 24° |
| 2026-05-08 21:09 | 29.78365 | 71.15400 | 11862 ft | 318 kts | 24° |
| 2026-05-08 21:09 | 29.80322 | 71.16580 | 11425 ft | 317 kts | 24° |
| 2026-05-08 21:10 | 29.82274 | 71.17760 | 10980 ft | 316 kts | 24° |
| 2026-05-08 21:10 | 29.84219 | 71.18938 | 10552 ft | 315 kts | 24° |
| 2026-05-08 21:10 | 29.86153 | 71.20081 | 10299 ft | 305 kts | 20° |
| 2026-05-08 21:10 | 29.88143 | 71.20709 | 10046 ft | 291 kts | 3° |
| 2026-05-08 21:11 | 29.90153 | 71.20664 | 9875 ft | 289 kts | 348° |
| 2026-05-08 21:11 | 29.92081 | 71.20033 | 9495 ft | 291 kts | 336° |
| 2026-05-08 21:11 | 29.94055 | 71.19409 | 9032 ft | 297 kts | 356° |
| 2026-05-08 21:11 | 29.96035 | 71.19952 | 8764 ft | 298 kts | 27° |
| 2026-05-08 21:12 | 29.97500 | 71.21618 | 8375 ft | 300 kts | 60° |
| 2026-05-08 21:12 | 29.98105 | 71.23879 | 8074 ft | 289 kts | 78° |
| 2026-05-08 21:12 | 29.98506 | 71.26081 | 7874 ft | 274 kts | 76° |
| 2026-05-08 21:12 | 29.98950 | 71.28180 | 7464 ft | 267 kts | 74° |
| 2026-05-08 21:13 | 29.99425 | 71.30235 | 6979 ft | 262 kts | 73° |
| 2026-05-08 21:13 | 29.99916 | 71.32286 | 6281 ft | 268 kts | 73° |
| 2026-05-08 21:13 | 30.00419 | 71.34378 | 5563 ft | 274 kts | 73° |
| 2026-05-08 21:13 | 30.00929 | 71.36514 | 4828 ft | 278 kts | 74° |
| 2026-05-08 21:14 | 30.01475 | 71.38666 | 4117 ft | 280 kts | 67° |
| 2026-05-08 21:14 | 30.02631 | 71.40352 | 3811 ft | 263 kts | 32° |
| 2026-05-08 21:14 | 30.04315 | 71.41028 | 3379 ft | 254 kts | 8° |
| 2026-05-08 21:14 | 30.06038 | 71.41207 | 2994 ft | 244 kts | 358° |
| 2026-05-08 21:15 | 30.07705 | 71.41129 | 2652 ft | 236 kts | 0° |
| 2026-05-08 21:15 | 30.09307 | 71.41167 | 2340 ft | 226 kts | 5° |
| 2026-05-08 21:15 | 30.10843 | 71.41266 | 2046 ft | 216 kts | 5° |
| 2026-05-08 21:15 | 30.12309 | 71.41367 | 1788 ft | 205 kts | 5° |
| 2026-05-08 21:16 | 30.13695 | 71.41461 | 1505 ft | 195 kts | 4° |
| 2026-05-08 21:16 | 30.15006 | 71.41550 | 1253 ft | 181 kts | 4° |
| 2026-05-08 21:16 | 30.16193 | 71.41633 | 1023 ft | 162 kts | 5° |
| 2026-05-08 21:16 | 30.17260 | 71.41701 | 811 ft | 149 kts | 4° |
| 2026-05-08 21:17 | 30.18279 | 71.41771 | 620 ft | 145 kts | 5° |
| 2026-05-08 21:17 | 30.19284 | 71.41844 | 429 ft | 143 kts | 4° |
| 2026-05-08 21:17 | 30.20173 | 71.41900 | 410 ft | 109 kts | 1° |
| 2026-05-08 21:17 | 30.20762 | 71.41937 | 411 ft | 60 kts | 3° |
| 2026-05-08 21:18 | 30.21086 | 71.41971 | 411 ft | 32 kts | 2° |
| 2026-05-08 21:18 | 30.21308 | 71.41976 | 413 ft | 32 kts | 3° |
| 2026-05-08 21:18 | 30.21498 | 71.41990 | 412 ft | 16 kts | 5° |
| 2026-05-08 21:18 | 30.21554 | 71.42035 | 413 ft | 10 kts | 77° |
| 2026-05-08 21:19 | 30.21554 | 71.42126 | 412 ft | 13 kts | 90° |
| 2026-05-08 21:19 | 30.21513 | 71.42189 | 412 ft | 11 kts | 170° |
| 2026-05-08 21:19 | 30.21424 | 71.42184 | 412 ft | 14 kts | 183° |
| 2026-05-08 21:19 | 30.21312 | 71.42178 | 412 ft | 18 kts | 182° |
| 2026-05-08 21:20 | 30.21179 | 71.42170 | 412 ft | 21 kts | 183° |
| 2026-05-08 21:20 | 30.21025 | 71.42160 | 409 ft | 23 kts | 184° |
| 2026-05-08 21:20 | 30.20869 | 71.42148 | 412 ft | 20 kts | 183° |
| 2026-05-08 21:20 | 30.20723 | 71.42138 | 408 ft | 22 kts | 184° |
| 2026-05-08 21:21 | 30.20568 | 71.42128 | 412 ft | 23 kts | 183° |
| 2026-05-08 21:21 | 30.20408 | 71.42117 | 412 ft | 23 kts | 184° |
| 2026-05-08 21:21 | 30.20246 | 71.42106 | 412 ft | 23 kts | 183° |
| 2026-05-08 21:21 | 30.20092 | 71.42095 | 409 ft | 21 kts | 183° |
| 2026-05-08 21:22 | 30.19949 | 71.42086 | 413 ft | 20 kts | 183° |
| 2026-05-08 21:22 | 30.19809 | 71.42076 | 413 ft | 20 kts | 184° |
| 2026-05-08 21:22 | 30.19676 | 71.42065 | 409 ft | 18 kts | 183° |
| 2026-05-08 21:22 | 30.19563 | 71.42059 | 411 ft | 14 kts | 183° |
| 2026-05-08 21:23 | 30.19490 | 71.42069 | 413 ft | 9 kts | 143° |
| 2026-05-08 21:23 | 30.19477 | 71.42127 | 413 ft | 9 kts | 93° |
| 2026-05-08 21:23 | 30.19474 | 71.42204 | 413 ft | 10 kts | 90° |
| 2026-05-08 21:23 | 30.19511 | 71.42247 | 410 ft | 6 kts | 354° |
| 2026-05-08 21:24 | 30.19560 | 71.42238 | 413 ft | 7 kts | 356° |
| 2026-05-08 21:24 | 30.19587 | 71.42244 | 413 ft | 3 kts | 17° |
| 2026-05-08 21:24 | 30.19603 | 71.42264 | 412 ft | 4 kts | 68° |
| 2026-05-08 21:24 | 30.19603 | 71.42279 | 410 ft | 1 kts | 91° |
| 2026-05-08 21:25 | 30.19603 | 71.42281 | 413 ft | 0 kts | 91° |